sensor_id;sensor_type;location;lat;lon;timestamp;P1;durP1;ratioP1;P2;durP2;ratioP2
77870;SDS011;67067;46.850;7.578;2023-04-24T05:20:19;0.80;;;0.73;;
77870;SDS011;67067;46.850;7.578;2023-04-24T05:22:25;1.08;;;1.08;;
77870;SDS011;67067;46.850;7.578;2023-04-24T05:23:27;0.65;;;0.65;;
77870;SDS011;67067;46.850;7.578;2023-04-24T05:24:30;3.75;;;1.38;;
77870;SDS011;67067;46.850;7.578;2023-04-24T05:25:43;1.90;;;0.95;;
77870;SDS011;67067;46.850;7.578;2023-04-24T05:26:46;2.25;;;1.10;;
77870;SDS011;67067;46.850;7.578;2023-04-24T05:27:51;0.80;;;0.80;;
77870;SDS011;67067;46.850;7.578;2023-04-24T05:28:54;1.10;;;0.95;;
77870;SDS011;67067;46.850;7.578;2023-04-24T05:29:56;1.83;;;1.33;;
77870;SDS011;67067;46.850;7.578;2023-04-24T05:32:01;1.55;;;1.17;;
77870;SDS011;67067;46.850;7.578;2023-04-24T05:33:04;0.90;;;0.90;;
77870;SDS011;67067;46.850;7.578;2023-04-24T05:34:09;1.20;;;1.10;;
77870;SDS011;67067;46.850;7.578;2023-04-24T05:35:16;2.72;;;1.23;;
77870;SDS011;67067;46.850;7.578;2023-04-24T05:36:20;1.75;;;1.08;;
77870;SDS011;67067;46.850;7.578;2023-04-24T05:38:23;1.60;;;0.88;;
77870;SDS011;67067;46.850;7.578;2023-04-24T05:40:27;1.63;;;1.52;;
77870;SDS011;67067;46.850;7.578;2023-04-24T05:41:32;1.40;;;1.25;;
77870;SDS011;67067;46.850;7.578;2023-04-24T05:42:36;2.10;;;1.38;;
77870;SDS011;67067;46.850;7.578;2023-04-24T05:44:41;2.33;;;1.30;;
77870;SDS011;67067;46.850;7.578;2023-04-24T05:45:43;1.13;;;1.02;;
77870;SDS011;67067;46.850;7.578;2023-04-24T05:46:44;6.07;;;1.60;;
77870;SDS011;67067;46.850;7.578;2023-04-24T05:47:46;2.85;;;1.40;;
77870;SDS011;67067;46.850;7.578;2023-04-24T05:49:50;1.52;;;1.40;;
77870;SDS011;67067;46.850;7.578;2023-04-24T05:50:55;3.28;;;1.40;;
77870;SDS011;67067;46.850;7.578;2023-04-24T05:51:57;1.52;;;1.35;;
77870;SDS011;67067;46.850;7.578;2023-04-24T05:54:04;2.63;;;1.70;;
77870;SDS011;67067;46.850;7.578;2023-04-24T05:55:08;2.30;;;1.48;;
77870;SDS011;67067;46.850;7.578;2023-04-24T05:56:18;1.85;;;1.58;;
77870;SDS011;67067;46.850;7.578;2023-04-24T05:57:20;2.50;;;1.40;;
77870;SDS011;67067;46.850;7.578;2023-04-24T05:58:26;1.50;;;1.40;;
77870;SDS011;67067;46.850;7.578;2023-04-24T05:59:28;2.03;;;1.48;;
77870;SDS011;67067;46.850;7.578;2023-04-24T06:00:32;2.72;;;1.48;;
77870;SDS011;67067;46.850;7.578;2023-04-24T06:01:39;2.67;;;1.48;;
77870;SDS011;67067;46.850;7.578;2023-04-24T06:02:49;2.83;;;1.70;;
77870;SDS011;67067;46.850;7.578;2023-04-24T06:03:53;5.25;;;1.90;;
77870;SDS011;67067;46.850;7.578;2023-04-24T06:04:55;1.65;;;1.55;;
77870;SDS011;67067;46.850;7.578;2023-04-24T06:06:01;4.40;;;2.13;;
77870;SDS011;67067;46.850;7.578;2023-04-24T06:07:03;2.30;;;2.10;;
77870;SDS011;67067;46.850;7.578;2023-04-24T06:08:05;4.07;;;2.10;;
77870;SDS011;67067;46.850;7.578;2023-04-24T06:09:11;3.97;;;2.00;;
77870;SDS011;67067;46.850;7.578;2023-04-24T06:10:13;3.25;;;2.38;;
77870;SDS011;67067;46.850;7.578;2023-04-24T06:11:17;5.95;;;2.55;;
77870;SDS011;67067;46.850;7.578;2023-04-24T06:12:19;3.72;;;2.50;;
77870;SDS011;67067;46.850;7.578;2023-04-24T06:13:29;3.30;;;2.35;;
77870;SDS011;67067;46.850;7.578;2023-04-24T06:14:49;3.97;;;2.47;;
77870;SDS011;67067;46.850;7.578;2023-04-24T06:15:55;3.70;;;2.30;;
77870;SDS011;67067;46.850;7.578;2023-04-24T06:17:05;1.80;;;1.70;;
77870;SDS011;67067;46.850;7.578;2023-04-24T06:18:11;3.97;;;1.98;;
77870;SDS011;67067;46.850;7.578;2023-04-24T06:19:15;2.65;;;1.60;;
77870;SDS011;67067;46.850;7.578;2023-04-24T06:20:19;3.55;;;1.83;;
77870;SDS011;67067;46.850;7.578;2023-04-24T06:21:23;1.80;;;1.60;;
77870;SDS011;67067;46.850;7.578;2023-04-24T06:23:26;1.90;;;1.70;;
77870;SDS011;67067;46.850;7.578;2023-04-24T06:24:35;2.45;;;1.65;;
77870;SDS011;67067;46.850;7.578;2023-04-24T06:25:39;2.55;;;2.05;;
77870;SDS011;67067;46.850;7.578;2023-04-24T06:26:41;3.17;;;1.77;;
77870;SDS011;67067;46.850;7.578;2023-04-24T06:28:44;4.75;;;1.88;;
77870;SDS011;67067;46.850;7.578;2023-04-24T06:30:49;1.75;;;1.52;;
77870;SDS011;67067;46.850;7.578;2023-04-24T06:32:52;2.45;;;1.40;;
77870;SDS011;67067;46.850;7.578;2023-04-24T06:33:56;1.52;;;1.40;;
77870;SDS011;67067;46.850;7.578;2023-04-24T06:34:58;1.63;;;1.52;;
77870;SDS011;67067;46.850;7.578;2023-04-24T06:35:59;3.25;;;1.70;;
77870;SDS011;67067;46.850;7.578;2023-04-24T06:37:01;1.40;;;1.23;;
77870;SDS011;67067;46.850;7.578;2023-04-24T06:38:04;2.35;;;1.58;;
77870;SDS011;67067;46.850;7.578;2023-04-24T06:39:06;3.08;;;1.52;;
77870;SDS011;67067;46.850;7.578;2023-04-24T06:40:08;2.92;;;1.55;;
77870;SDS011;67067;46.850;7.578;2023-04-24T06:41:10;1.38;;;1.33;;
77870;SDS011;67067;46.850;7.578;2023-04-24T06:42:14;2.95;;;2.00;;
77870;SDS011;67067;46.850;7.578;2023-04-24T06:43:17;5.55;;;2.00;;
77870;SDS011;67067;46.850;7.578;2023-04-24T06:45:21;3.65;;;2.30;;
77870;SDS011;67067;46.850;7.578;2023-04-24T06:46:25;2.40;;;2.13;;
77870;SDS011;67067;46.850;7.578;2023-04-24T06:47:29;2.20;;;1.83;;
77870;SDS011;67067;46.850;7.578;2023-04-24T06:48:31;2.70;;;2.00;;
77870;SDS011;67067;46.850;7.578;2023-04-24T06:49:32;2.75;;;1.58;;
77870;SDS011;67067;46.850;7.578;2023-04-24T06:50:34;1.77;;;1.65;;
77870;SDS011;67067;46.850;7.578;2023-04-24T06:51:36;2.33;;;1.75;;
77870;SDS011;67067;46.850;7.578;2023-04-24T06:52:38;1.30;;;1.30;;
77870;SDS011;67067;46.850;7.578;2023-04-24T06:53:42;4.03;;;1.83;;
77870;SDS011;67067;46.850;7.578;2023-04-24T06:54:43;1.80;;;1.48;;
77870;SDS011;67067;46.850;7.578;2023-04-24T06:56:47;1.98;;;1.00;;
77870;SDS011;67067;46.850;7.578;2023-04-24T06:57:52;1.15;;;1.08;;
77870;SDS011;67067;46.850;7.578;2023-04-24T06:58:53;1.58;;;1.05;;
77870;SDS011;67067;46.850;7.578;2023-04-24T06:59:56;1.50;;;1.40;;
77870;SDS011;67067;46.850;7.578;2023-04-24T07:00:57;3.85;;;1.20;;
77870;SDS011;67067;46.850;7.578;2023-04-24T07:03:03;2.93;;;1.03;;
77870;SDS011;67067;46.850;7.578;2023-04-24T07:04:09;2.42;;;1.20;;
77870;SDS011;67067;46.850;7.578;2023-04-24T07:05:11;1.98;;;1.33;;
77870;SDS011;67067;46.850;7.578;2023-04-24T07:06:14;2.03;;;1.23;;
77870;SDS011;67067;46.850;7.578;2023-04-24T07:07:17;2.22;;;1.02;;
77870;SDS011;67067;46.850;7.578;2023-04-24T07:09:23;2.33;;;1.38;;
77870;SDS011;67067;46.850;7.578;2023-04-24T07:10:28;1.13;;;1.02;;
77870;SDS011;67067;46.850;7.578;2023-04-24T07:11:30;2.05;;;0.98;;
77870;SDS011;67067;46.850;7.578;2023-04-24T07:12:32;1.00;;;1.00;;
77870;SDS011;67067;46.850;7.578;2023-04-24T07:13:34;1.55;;;1.30;;
77870;SDS011;67067;46.850;7.578;2023-04-24T07:14:42;1.20;;;1.10;;
77870;SDS011;67067;46.850;7.578;2023-04-24T07:15:44;2.70;;;1.50;;
77870;SDS011;67067;46.850;7.578;2023-04-24T07:16:49;1.65;;;1.10;;
77870;SDS011;67067;46.850;7.578;2023-04-24T07:17:51;5.22;;;1.40;;
77870;SDS011;67067;46.850;7.578;2023-04-24T07:19:54;1.90;;;1.10;;
77870;SDS011;67067;46.850;7.578;2023-04-24T07:20:55;3.28;;;1.20;;
77870;SDS011;67067;46.850;7.578;2023-04-24T07:21:57;1.42;;;1.33;;
77870;SDS011;67067;46.850;7.578;2023-04-24T07:22:59;1.20;;;1.10;;
77870;SDS011;67067;46.850;7.578;2023-04-24T07:25:03;2.65;;;1.98;;
77870;SDS011;67067;46.850;7.578;2023-04-24T07:26:05;1.15;;;1.15;;
77870;SDS011;67067;46.850;7.578;2023-04-24T07:28:08;1.20;;;1.00;;
77870;SDS011;67067;46.850;7.578;2023-04-24T07:29:12;2.63;;;1.63;;
77870;SDS011;67067;46.850;7.578;2023-04-24T07:30:15;1.27;;;1.17;;
77870;SDS011;67067;46.850;7.578;2023-04-24T07:31:19;6.07;;;1.30;;
77870;SDS011;67067;46.850;7.578;2023-04-24T07:32:20;1.30;;;1.20;;
77870;SDS011;67067;46.850;7.578;2023-04-24T07:34:24;2.25;;;1.20;;
77870;SDS011;67067;46.850;7.578;2023-04-24T07:36:27;4.30;;;1.58;;
77870;SDS011;67067;46.850;7.578;2023-04-24T07:37:29;3.85;;;1.70;;
77870;SDS011;67067;46.850;7.578;2023-04-24T07:38:34;3.28;;;1.15;;
77870;SDS011;67067;46.850;7.578;2023-04-24T07:40:39;1.80;;;1.08;;
77870;SDS011;67067;46.850;7.578;2023-04-24T07:41:44;2.80;;;1.60;;
77870;SDS011;67067;46.850;7.578;2023-04-24T07:42:48;1.50;;;1.20;;
77870;SDS011;67067;46.850;7.578;2023-04-24T07:44:51;2.33;;;1.23;;
77870;SDS011;67067;46.850;7.578;2023-04-24T07:46:55;3.88;;;1.70;;
77870;SDS011;67067;46.850;7.578;2023-04-24T07:48:00;2.97;;;1.77;;
77870;SDS011;67067;46.850;7.578;2023-04-24T07:49:02;5.85;;;1.60;;
77870;SDS011;67067;46.850;7.578;2023-04-24T07:50:14;1.80;;;1.48;;
77870;SDS011;67067;46.850;7.578;2023-04-24T07:52:17;3.08;;;1.27;;
77870;SDS011;67067;46.850;7.578;2023-04-24T07:54:20;1.42;;;1.30;;
77870;SDS011;67067;46.850;7.578;2023-04-24T07:55:22;2.10;;;1.38;;
77870;SDS011;67067;46.850;7.578;2023-04-24T07:56:30;1.60;;;1.50;;
77870;SDS011;67067;46.850;7.578;2023-04-24T07:57:32;1.50;;;1.40;;
77870;SDS011;67067;46.850;7.578;2023-04-24T07:58:34;2.90;;;1.85;;
77870;SDS011;67067;46.850;7.578;2023-04-24T07:59:36;1.55;;;1.30;;
77870;SDS011;67067;46.850;7.578;2023-04-24T08:00:37;2.38;;;1.30;;
77870;SDS011;67067;46.850;7.578;2023-04-24T08:01:39;1.77;;;1.30;;
77870;SDS011;67067;46.850;7.578;2023-04-24T08:02:41;1.75;;;1.13;;
77870;SDS011;67067;46.850;7.578;2023-04-24T08:03:43;2.03;;;1.38;;
77870;SDS011;67067;46.850;7.578;2023-04-24T08:04:45;1.42;;;1.17;;
77870;SDS011;67067;46.850;7.578;2023-04-24T08:05:47;4.65;;;1.80;;
77870;SDS011;67067;46.850;7.578;2023-04-24T08:06:49;1.35;;;1.20;;
77870;SDS011;67067;46.850;7.578;2023-04-24T08:07:51;2.35;;;1.40;;
77870;SDS011;67067;46.850;7.578;2023-04-24T08:08:53;4.65;;;2.13;;
77870;SDS011;67067;46.850;7.578;2023-04-24T08:09:56;2.80;;;1.27;;
77870;SDS011;67067;46.850;7.578;2023-04-24T08:12:00;1.77;;;1.40;;
77870;SDS011;67067;46.850;7.578;2023-04-24T08:13:04;3.88;;;1.48;;
77870;SDS011;67067;46.850;7.578;2023-04-24T08:15:07;4.15;;;1.45;;
77870;SDS011;67067;46.850;7.578;2023-04-24T08:16:09;3.63;;;1.17;;
77870;SDS011;67067;46.850;7.578;2023-04-24T08:17:11;2.33;;;1.48;;
77870;SDS011;67067;46.850;7.578;2023-04-24T08:18:15;1.40;;;1.30;;
77870;SDS011;67067;46.850;7.578;2023-04-24T08:19:19;5.10;;;1.60;;
77870;SDS011;67067;46.850;7.578;2023-04-24T08:20:21;3.15;;;1.67;;
77870;SDS011;67067;46.850;7.578;2023-04-24T08:21:25;2.30;;;1.48;;
77870;SDS011;67067;46.850;7.578;2023-04-24T08:22:28;2.42;;;1.25;;
77870;SDS011;67067;46.850;7.578;2023-04-24T08:23:30;5.20;;;1.50;;
77870;SDS011;67067;46.850;7.578;2023-04-24T08:24:31;1.50;;;1.40;;
77870;SDS011;67067;46.850;7.578;2023-04-24T08:25:33;2.83;;;1.38;;
77870;SDS011;67067;46.850;7.578;2023-04-24T08:26:37;5.10;;;1.00;;
77870;SDS011;67067;46.850;7.578;2023-04-24T08:28:40;2.40;;;1.25;;
77870;SDS011;67067;46.850;7.578;2023-04-24T08:29:50;2.30;;;1.25;;
77870;SDS011;67067;46.850;7.578;2023-04-24T08:31:56;4.50;;;1.63;;
77870;SDS011;67067;46.850;7.578;2023-04-24T08:32:58;4.38;;;1.70;;
77870;SDS011;67067;46.850;7.578;2023-04-24T08:35:03;3.67;;;1.80;;
77870;SDS011;67067;46.850;7.578;2023-04-24T08:36:05;1.75;;;1.38;;
77870;SDS011;67067;46.850;7.578;2023-04-24T08:37:07;3.05;;;1.50;;
77870;SDS011;67067;46.850;7.578;2023-04-24T08:38:09;1.42;;;1.33;;
77870;SDS011;67067;46.850;7.578;2023-04-24T08:39:11;2.05;;;1.80;;
77870;SDS011;67067;46.850;7.578;2023-04-24T08:41:18;1.30;;;1.30;;
77870;SDS011;67067;46.850;7.578;2023-04-24T08:42:20;7.40;;;1.65;;
77870;SDS011;67067;46.850;7.578;2023-04-24T08:43:23;4.07;;;2.00;;
77870;SDS011;67067;46.850;7.578;2023-04-24T08:44:28;3.22;;;1.75;;
77870;SDS011;67067;46.850;7.578;2023-04-24T08:45:30;2.92;;;1.50;;
77870;SDS011;67067;46.850;7.578;2023-04-24T08:46:32;3.28;;;2.17;;
77870;SDS011;67067;46.850;7.578;2023-04-24T08:47:34;2.03;;;1.75;;
77870;SDS011;67067;46.850;7.578;2023-04-24T08:48:36;3.40;;;1.92;;
77870;SDS011;67067;46.850;7.578;2023-04-24T08:49:40;2.42;;;1.85;;
77870;SDS011;67067;46.850;7.578;2023-04-24T08:51:44;4.03;;;1.98;;
77870;SDS011;67067;46.850;7.578;2023-04-24T08:52:49;4.18;;;1.73;;
77870;SDS011;67067;46.850;7.578;2023-04-24T08:53:52;4.97;;;1.73;;
77870;SDS011;67067;46.850;7.578;2023-04-24T08:54:55;2.28;;;1.95;;
77870;SDS011;67067;46.850;7.578;2023-04-24T08:55:57;2.25;;;1.90;;
77870;SDS011;67067;46.850;7.578;2023-04-24T08:58:07;4.85;;;1.70;;
77870;SDS011;67067;46.850;7.578;2023-04-24T08:59:09;4.60;;;1.98;;
77870;SDS011;67067;46.850;7.578;2023-04-24T09:00:14;5.88;;;1.90;;
77870;SDS011;67067;46.850;7.578;2023-04-24T09:01:16;3.80;;;2.13;;
77870;SDS011;67067;46.850;7.578;2023-04-24T09:02:22;5.82;;;2.10;;
77870;SDS011;67067;46.850;7.578;2023-04-24T09:03:26;2.72;;;2.40;;
77870;SDS011;67067;46.850;7.578;2023-04-24T09:04:29;4.78;;;2.28;;
77870;SDS011;67067;46.850;7.578;2023-04-24T09:05:34;3.20;;;2.20;;
77870;SDS011;67067;46.850;7.578;2023-04-24T09:06:36;3.47;;;2.08;;
77870;SDS011;67067;46.850;7.578;2023-04-24T09:07:39;2.53;;;2.03;;
77870;SDS011;67067;46.850;7.578;2023-04-24T09:08:42;3.78;;;1.80;;
77870;SDS011;67067;46.850;7.578;2023-04-24T09:09:46;4.35;;;1.88;;
77870;SDS011;67067;46.850;7.578;2023-04-24T09:10:51;5.70;;;2.25;;
77870;SDS011;67067;46.850;7.578;2023-04-24T09:11:59;4.07;;;2.08;;
77870;SDS011;67067;46.850;7.578;2023-04-24T09:13:01;5.95;;;2.33;;
77870;SDS011;67067;46.850;7.578;2023-04-24T09:14:06;4.57;;;1.98;;
77870;SDS011;67067;46.850;7.578;2023-04-24T09:15:08;3.95;;;2.30;;
77870;SDS011;67067;46.850;7.578;2023-04-24T09:16:13;3.88;;;2.25;;
77870;SDS011;67067;46.850;7.578;2023-04-24T09:17:16;2.78;;;2.35;;
77870;SDS011;67067;46.850;7.578;2023-04-24T09:19:20;4.50;;;2.75;;
77870;SDS011;67067;46.850;7.578;2023-04-24T09:20:23;4.25;;;2.30;;
77870;SDS011;67067;46.850;7.578;2023-04-24T09:21:24;3.75;;;2.25;;
77870;SDS011;67067;46.850;7.578;2023-04-24T09:22:33;4.07;;;2.00;;
77870;SDS011;67067;46.850;7.578;2023-04-24T09:23:37;2.25;;;2.05;;
77870;SDS011;67067;46.850;7.578;2023-04-24T09:24:40;3.53;;;2.33;;
77870;SDS011;67067;46.850;7.578;2023-04-24T09:25:41;5.45;;;2.40;;
77870;SDS011;67067;46.850;7.578;2023-04-24T09:26:45;2.83;;;2.00;;
77870;SDS011;67067;46.850;7.578;2023-04-24T09:28:56;4.30;;;1.75;;
77870;SDS011;67067;46.850;7.578;2023-04-24T09:30:06;3.67;;;2.22;;
77870;SDS011;67067;46.850;7.578;2023-04-24T09:31:11;4.28;;;2.03;;
77870;SDS011;67067;46.850;7.578;2023-04-24T09:32:19;5.47;;;2.30;;
77870;SDS011;67067;46.850;7.578;2023-04-24T09:33:26;4.28;;;2.05;;
77870;SDS011;67067;46.850;7.578;2023-04-24T09:35:29;3.20;;;1.60;;
77870;SDS011;67067;46.850;7.578;2023-04-24T09:36:40;2.92;;;2.30;;
77870;SDS011;67067;46.850;7.578;2023-04-24T09:37:45;4.38;;;2.00;;
77870;SDS011;67067;46.850;7.578;2023-04-24T09:38:48;3.63;;;1.90;;
77870;SDS011;67067;46.850;7.578;2023-04-24T09:40:06;3.10;;;1.85;;
77870;SDS011;67067;46.850;7.578;2023-04-24T09:41:13;5.53;;;2.20;;
77870;SDS011;67067;46.850;7.578;2023-04-24T09:42:15;5.15;;;1.90;;
77870;SDS011;67067;46.850;7.578;2023-04-24T09:44:19;2.17;;;1.98;;
77870;SDS011;67067;46.850;7.578;2023-04-24T09:45:42;2.67;;;1.92;;
77870;SDS011;67067;46.850;7.578;2023-04-24T09:46:44;3.20;;;2.08;;
77870;SDS011;67067;46.850;7.578;2023-04-24T09:47:51;2.33;;;2.13;;
77870;SDS011;67067;46.850;7.578;2023-04-24T09:48:54;2.80;;;2.20;;
77870;SDS011;67067;46.850;7.578;2023-04-24T09:49:57;2.78;;;1.77;;
77870;SDS011;67067;46.850;7.578;2023-04-24T09:51:00;4.90;;;2.50;;
77870;SDS011;67067;46.850;7.578;2023-04-24T09:52:08;3.50;;;2.30;;
77870;SDS011;67067;46.850;7.578;2023-04-24T09:53:11;2.67;;;2.42;;
77870;SDS011;67067;46.850;7.578;2023-04-24T09:54:14;4.00;;;2.20;;
77870;SDS011;67067;46.850;7.578;2023-04-24T09:55:20;4.18;;;2.10;;
77870;SDS011;67067;46.850;7.578;2023-04-24T09:56:22;4.10;;;2.38;;
77870;SDS011;67067;46.850;7.578;2023-04-24T09:57:27;3.63;;;2.00;;
77870;SDS011;67067;46.850;7.578;2023-04-24T09:58:29;4.18;;;2.30;;
77870;SDS011;67067;46.850;7.578;2023-04-24T09:59:31;4.55;;;2.30;;
77870;SDS011;67067;46.850;7.578;2023-04-24T10:00:32;4.03;;;2.38;;
77870;SDS011;67067;46.850;7.578;2023-04-24T10:01:34;7.28;;;2.28;;
77870;SDS011;67067;46.850;7.578;2023-04-24T10:02:43;3.30;;;2.30;;
77870;SDS011;67067;46.850;7.578;2023-04-24T10:03:45;3.70;;;2.50;;
77870;SDS011;67067;46.850;7.578;2023-04-24T10:04:56;3.58;;;2.10;;
77870;SDS011;67067;46.850;7.578;2023-04-24T10:06:01;8.93;;;2.80;;
77870;SDS011;67067;46.850;7.578;2023-04-24T10:07:09;2.97;;;2.45;;
77870;SDS011;67067;46.850;7.578;2023-04-24T10:08:12;4.03;;;2.53;;
77870;SDS011;67067;46.850;7.578;2023-04-24T10:09:20;3.20;;;2.50;;
77870;SDS011;67067;46.850;7.578;2023-04-24T10:10:26;6.55;;;2.50;;
77870;SDS011;67067;46.850;7.578;2023-04-24T10:11:28;3.55;;;2.70;;
77870;SDS011;67067;46.850;7.578;2023-04-24T10:12:31;4.18;;;2.78;;
77870;SDS011;67067;46.850;7.578;2023-04-24T10:13:33;3.03;;;1.95;;
77870;SDS011;67067;46.850;7.578;2023-04-24T10:14:35;3.75;;;2.53;;
77870;SDS011;67067;46.850;7.578;2023-04-24T10:15:38;2.55;;;2.35;;
77870;SDS011;67067;46.850;7.578;2023-04-24T10:16:42;4.65;;;2.70;;
77870;SDS011;67067;46.850;7.578;2023-04-24T10:17:48;3.25;;;2.20;;
77870;SDS011;67067;46.850;7.578;2023-04-24T10:18:54;5.18;;;2.13;;
77870;SDS011;67067;46.850;7.578;2023-04-24T10:19:56;3.25;;;2.38;;
77870;SDS011;67067;46.850;7.578;2023-04-24T10:21:02;3.15;;;2.10;;
77870;SDS011;67067;46.850;7.578;2023-04-24T10:22:04;2.72;;;2.13;;
77870;SDS011;67067;46.850;7.578;2023-04-24T10:23:09;2.63;;;2.42;;
77870;SDS011;67067;46.850;7.578;2023-04-24T10:24:12;5.32;;;2.60;;
77870;SDS011;67067;46.850;7.578;2023-04-24T10:25:18;2.78;;;2.13;;
77870;SDS011;67067;46.850;7.578;2023-04-24T10:26:24;4.07;;;2.30;;
77870;SDS011;67067;46.850;7.578;2023-04-24T10:28:28;2.70;;;2.10;;
77870;SDS011;67067;46.850;7.578;2023-04-24T10:29:33;4.07;;;2.60;;
77870;SDS011;67067;46.850;7.578;2023-04-24T10:30:37;4.32;;;2.20;;
77870;SDS011;67067;46.850;7.578;2023-04-24T10:31:44;4.00;;;2.15;;
77870;SDS011;67067;46.850;7.578;2023-04-24T10:32:49;4.32;;;2.38;;
77870;SDS011;67067;46.850;7.578;2023-04-24T10:34:54;2.35;;;1.98;;
77870;SDS011;67067;46.850;7.578;2023-04-24T10:35:58;5.20;;;2.53;;
77870;SDS011;67067;46.850;7.578;2023-04-24T10:37:00;3.65;;;2.50;;
77870;SDS011;67067;46.850;7.578;2023-04-24T10:38:09;3.10;;;1.63;;
77870;SDS011;67067;46.850;7.578;2023-04-24T10:39:17;4.53;;;2.28;;
77870;SDS011;67067;46.850;7.578;2023-04-24T10:40:31;4.53;;;2.08;;
77870;SDS011;67067;46.850;7.578;2023-04-24T10:41:39;5.03;;;2.08;;
77870;SDS011;67067;46.850;7.578;2023-04-24T10:42:41;5.93;;;2.28;;
77870;SDS011;67067;46.850;7.578;2023-04-24T10:43:45;2.75;;;1.98;;
77870;SDS011;67067;46.850;7.578;2023-04-24T10:44:49;2.65;;;1.90;;
77870;SDS011;67067;46.850;7.578;2023-04-24T10:47:07;4.55;;;2.13;;
77870;SDS011;67067;46.850;7.578;2023-04-24T10:48:15;4.75;;;2.40;;
77870;SDS011;67067;46.850;7.578;2023-04-24T10:49:17;5.60;;;2.55;;
77870;SDS011;67067;46.850;7.578;2023-04-24T10:50:30;4.80;;;2.33;;
77870;SDS011;67067;46.850;7.578;2023-04-24T10:51:45;3.28;;;2.10;;
77870;SDS011;67067;46.850;7.578;2023-04-24T10:53:04;4.70;;;2.53;;
77870;SDS011;67067;46.850;7.578;2023-04-24T10:54:23;4.70;;;2.05;;
77870;SDS011;67067;46.850;7.578;2023-04-24T10:55:41;4.75;;;2.47;;
77870;SDS011;67067;46.850;7.578;2023-04-24T10:56:44;2.88;;;1.98;;
77870;SDS011;67067;46.850;7.578;2023-04-24T10:58:04;3.08;;;2.55;;
77870;SDS011;67067;46.850;7.578;2023-04-24T10:59:07;4.70;;;2.42;;
77870;SDS011;67067;46.850;7.578;2023-04-24T11:00:15;4.28;;;2.70;;
77870;SDS011;67067;46.850;7.578;2023-04-24T11:01:29;2.80;;;2.17;;
77870;SDS011;67067;46.850;7.578;2023-04-24T11:02:37;2.35;;;2.15;;
77870;SDS011;67067;46.850;7.578;2023-04-24T11:03:40;3.88;;;2.47;;
77870;SDS011;67067;46.850;7.578;2023-04-24T11:04:55;3.63;;;2.60;;
77870;SDS011;67067;46.850;7.578;2023-04-24T11:07:10;5.45;;;2.35;;
77870;SDS011;67067;46.850;7.578;2023-04-24T11:08:13;3.92;;;2.50;;
77870;SDS011;67067;46.850;7.578;2023-04-24T11:09:17;3.30;;;2.33;;
77870;SDS011;67067;46.850;7.578;2023-04-24T11:10:27;5.05;;;2.58;;
77870;SDS011;67067;46.850;7.578;2023-04-24T11:11:29;5.75;;;2.53;;
77870;SDS011;67067;46.850;7.578;2023-04-24T11:12:34;5.40;;;2.58;;
77870;SDS011;67067;46.850;7.578;2023-04-24T11:16:12;5.32;;;2.50;;
77870;SDS011;67067;46.850;7.578;2023-04-24T11:17:37;3.30;;;2.42;;
77870;SDS011;67067;46.850;7.578;2023-04-24T11:18:43;3.13;;;2.78;;
77870;SDS011;67067;46.850;7.578;2023-04-24T11:19:52;3.47;;;2.53;;
77870;SDS011;67067;46.850;7.578;2023-04-24T11:20:56;5.07;;;2.65;;
77870;SDS011;67067;46.850;7.578;2023-04-24T11:22:01;7.03;;;2.50;;
77870;SDS011;67067;46.850;7.578;2023-04-24T11:23:05;4.88;;;2.28;;
77870;SDS011;67067;46.850;7.578;2023-04-24T11:25:30;4.82;;;2.30;;
77870;SDS011;67067;46.850;7.578;2023-04-24T11:26:33;4.05;;;2.53;;
77870;SDS011;67067;46.850;7.578;2023-04-24T11:27:40;3.92;;;2.78;;
77870;SDS011;67067;46.850;7.578;2023-04-24T11:28:46;3.40;;;2.50;;
77870;SDS011;67067;46.850;7.578;2023-04-24T11:30:59;5.97;;;2.50;;
77870;SDS011;67067;46.850;7.578;2023-04-24T11:32:38;5.30;;;2.47;;
77870;SDS011;67067;46.850;7.578;2023-04-24T11:33:41;5.32;;;2.33;;
77870;SDS011;67067;46.850;7.578;2023-04-24T11:35:47;3.03;;;2.28;;
77870;SDS011;67067;46.850;7.578;2023-04-24T11:36:48;3.15;;;2.13;;
77870;SDS011;67067;46.850;7.578;2023-04-24T11:39:13;6.72;;;2.58;;
77870;SDS011;67067;46.850;7.578;2023-04-24T11:40:16;4.55;;;2.35;;
77870;SDS011;67067;46.850;7.578;2023-04-24T11:41:21;5.78;;;2.30;;
77870;SDS011;67067;46.850;7.578;2023-04-24T11:42:23;3.80;;;1.95;;
77870;SDS011;67067;46.850;7.578;2023-04-24T11:43:27;3.53;;;1.85;;
77870;SDS011;67067;46.850;7.578;2023-04-24T11:44:34;3.47;;;1.90;;
77870;SDS011;67067;46.850;7.578;2023-04-24T11:45:38;2.20;;;2.00;;
77870;SDS011;67067;46.850;7.578;2023-04-24T11:46:49;5.65;;;2.55;;
77870;SDS011;67067;46.850;7.578;2023-04-24T11:48:53;3.60;;;2.30;;
77870;SDS011;67067;46.850;7.578;2023-04-24T11:49:54;5.72;;;1.92;;
77870;SDS011;67067;46.850;7.578;2023-04-24T11:51:59;5.65;;;2.20;;
77870;SDS011;67067;46.850;7.578;2023-04-24T11:53:02;3.22;;;2.25;;
77870;SDS011;67067;46.850;7.578;2023-04-24T11:54:07;2.92;;;2.30;;
77870;SDS011;67067;46.850;7.578;2023-04-24T11:56:17;3.72;;;2.33;;
77870;SDS011;67067;46.850;7.578;2023-04-24T11:57:24;3.95;;;2.40;;
77870;SDS011;67067;46.850;7.578;2023-04-24T11:58:34;3.75;;;2.90;;
77870;SDS011;67067;46.850;7.578;2023-04-24T11:59:36;4.70;;;2.70;;
77870;SDS011;67067;46.850;7.578;2023-04-24T12:00:41;2.75;;;2.40;;
77870;SDS011;67067;46.850;7.578;2023-04-24T12:01:43;2.08;;;1.98;;
77870;SDS011;67067;46.850;7.578;2023-04-24T12:02:47;3.88;;;1.98;;
77870;SDS011;67067;46.850;7.578;2023-04-24T12:03:50;3.10;;;1.73;;
77870;SDS011;67067;46.850;7.578;2023-04-24T12:05:03;4.95;;;1.80;;
77870;SDS011;67067;46.850;7.578;2023-04-24T12:06:08;3.08;;;1.50;;
77870;SDS011;67067;46.850;7.578;2023-04-24T12:07:11;2.25;;;1.75;;
77870;SDS011;67067;46.850;7.578;2023-04-24T12:08:28;2.38;;;1.90;;
77870;SDS011;67067;46.850;7.578;2023-04-24T12:09:41;2.75;;;1.80;;
77870;SDS011;67067;46.850;7.578;2023-04-24T12:10:57;3.40;;;1.92;;
77870;SDS011;67067;46.850;7.578;2023-04-24T12:12:00;3.03;;;2.42;;
77870;SDS011;67067;46.850;7.578;2023-04-24T12:14:10;2.88;;;2.20;;
77870;SDS011;67067;46.850;7.578;2023-04-24T12:15:15;2.65;;;1.88;;
77870;SDS011;67067;46.850;7.578;2023-04-24T12:16:23;5.30;;;2.08;;
77870;SDS011;67067;46.850;7.578;2023-04-24T12:17:30;3.05;;;1.98;;
77870;SDS011;67067;46.850;7.578;2023-04-24T12:18:33;4.60;;;2.15;;
77870;SDS011;67067;46.850;7.578;2023-04-24T12:19:44;2.78;;;2.00;;
77870;SDS011;67067;46.850;7.578;2023-04-24T12:20:46;2.10;;;1.90;;
77870;SDS011;67067;46.850;7.578;2023-04-24T12:22:01;2.20;;;2.00;;
77870;SDS011;67067;46.850;7.578;2023-04-24T12:23:05;3.45;;;2.00;;
77870;SDS011;67067;46.850;7.578;2023-04-24T12:24:06;5.65;;;2.40;;
77870;SDS011;67067;46.850;7.578;2023-04-24T12:25:09;3.25;;;2.60;;
77870;SDS011;67067;46.850;7.578;2023-04-24T12:26:15;2.80;;;2.00;;
77870;SDS011;67067;46.850;7.578;2023-04-24T12:27:23;4.30;;;2.40;;
77870;SDS011;67067;46.850;7.578;2023-04-24T12:28:34;3.53;;;2.42;;
77870;SDS011;67067;46.850;7.578;2023-04-24T12:29:37;4.07;;;2.35;;
77870;SDS011;67067;46.850;7.578;2023-04-24T12:31:02;4.90;;;2.50;;
77870;SDS011;67067;46.850;7.578;2023-04-24T12:32:03;3.25;;;2.20;;
77870;SDS011;67067;46.850;7.578;2023-04-24T12:33:05;3.20;;;2.25;;
77870;SDS011;67067;46.850;7.578;2023-04-24T12:34:20;3.15;;;2.25;;
77870;SDS011;67067;46.850;7.578;2023-04-24T12:35:27;5.97;;;2.05;;
77870;SDS011;67067;46.850;7.578;2023-04-24T12:36:29;4.55;;;2.40;;
77870;SDS011;67067;46.850;7.578;2023-04-24T12:37:33;4.43;;;2.38;;
77870;SDS011;67067;46.850;7.578;2023-04-24T12:38:36;3.85;;;2.05;;
77870;SDS011;67067;46.850;7.578;2023-04-24T12:41:11;4.00;;;2.08;;
77870;SDS011;67067;46.850;7.578;2023-04-24T12:42:15;2.72;;;1.80;;
77870;SDS011;67067;46.850;7.578;2023-04-24T12:44:28;3.08;;;1.95;;
77870;SDS011;67067;46.850;7.578;2023-04-24T12:45:31;4.50;;;2.22;;
77870;SDS011;67067;46.850;7.578;2023-04-24T12:46:33;5.85;;;2.30;;